Hamburg Express — DFKM2 — position and weather

sailwx.info

Track history (hours):
 
Tides and Currents Weather Stations Pressure Air Temp Water Temp Dewpoint Dewpoint Depression Visibility Wind Speed Wind Dir Waves Ship Positions

Hamburg Express

Last reported at 2017-Oct-18 22:00 UTC. Time now 2017-Oct-18 22:28 UTC.
Position N 37°57' E 023°35'.

Length 366 m; draft 12.9 m.

Type: Cargo ship. MMSI: 218774000.

Date/timePositionNaut miles runAvg speedWind from/ knotsBaromVisibWave heightAir tempDewpointWater temp
2017-Oct-18 22:00N 37°57' E 023°35'0 0.0
2017-Oct-18 21:30N 37°57' E 023°35'0 0.0
2017-Oct-18 21:00N 37°57' E 023°35'0 0.0
2017-Oct-18 20:30N 37°57' E 023°35'0 0.0
2017-Oct-18 20:00N 37°57' E 023°35'0 0.0
2017-Oct-18 19:30N 37°57' E 023°35'0 0.0
2017-Oct-18 19:00N 37°57' E 023°35'0 0.0
2017-Oct-18 18:30N 37°57' E 023°35'0 0.0
2017-Oct-18 18:00N 37°57' E 023°35'0 0.1
2017-Oct-18 17:30N 37°57' E 023°35'0 0.0
2017-Oct-18 17:00N 37°57' E 023°35'0 0.0
2017-Oct-18 16:30N 37°57' E 023°35'0 0.0
2017-Oct-18 16:00N 37°57' E 023°35'0 0.0
2017-Oct-18 15:30N 37°57' E 023°35'0 0.0
2017-Oct-18 15:00N 37°57' E 023°35'0 0.0
2017-Oct-18 14:00N 37°57' E 023°35'0 0.0
2017-Oct-18 13:30N 37°57' E 023°35'0 0.1
2017-Oct-18 13:00N 37°57' E 023°35'0 0.0
2017-Oct-18 12:30N 37°57' E 023°35'0 0.6
2017-Oct-18 12:00N 37°57' E 023°35'2 4.2
2017-Oct-18 11:30N 37°55' E 023°35'2 4.0
2017-Oct-18 11:00N 37°53' E 023°36'3 6.4
2017-Oct-18 10:30N 37°51' E 023°39'713.8
2017-Oct-18 10:01N 37°45' E 023°43'815.6
2017-Oct-18 09:31N 37°37' E 023°46'815.9
2017-Oct-18 09:00N 37°29' E 023°48'56212.5
2017-Oct-16 12:00N 32°18' E 033°18'72 8.8 340 / 141016.210.8 23.415.725.6
2017-Oct-16 03:47N 31°52' E 034°37'1 0.0
2017-Oct-14 23:36N 31°51' E 034°38'1 5.2
2017-Oct-14 23:27N 31°51' E 034°38'234 4.9
2017-Oct-13 00:00N 28°06' E 033°24'   320 / 251012.010.8 24.516.224.4
Track history (hours):
 
Tides and Currents Weather Stations Pressure Air Temp Water Temp Dewpoint Dewpoint Depression Visibility Wind Speed Wind Dir Waves Ship Positions

Hamburg Express

Last reported at 2017-Oct-18 22:00 UTC. Time now 2017-Oct-18 22:28 UTC.
Position N 37°57' E 023°35'.

Length 366 m; draft 12.9 m.

Type: Cargo ship. MMSI: 218774000.

Date/timePositionNaut miles runAvg speedWind from/ knotsBaromVisibWave heightAir tempDewpointWater temp
2017-Oct-18 22:00N 37°57' E 023°35'0 0.0
2017-Oct-18 21:30N 37°57' E 023°35'0 0.0
2017-Oct-18 21:00N 37°57' E 023°35'0 0.0
2017-Oct-18 20:30N 37°57' E 023°35'0 0.0
2017-Oct-18 20:00N 37°57' E 023°35'0 0.0
2017-Oct-18 19:30N 37°57' E 023°35'0 0.0
2017-Oct-18 19:00N 37°57' E 023°35'0 0.0
2017-Oct-18 18:30N 37°57' E 023°35'0 0.0
2017-Oct-18 18:00N 37°57' E 023°35'0 0.1
2017-Oct-18 17:30N 37°57' E 023°35'0 0.0
2017-Oct-18 17:00N 37°57' E 023°35'0 0.0
2017-Oct-18 16:30N 37°57' E 023°35'0 0.0
2017-Oct-18 16:00N 37°57' E 023°35'0 0.0
2017-Oct-18 15:30N 37°57' E 023°35'0 0.0
2017-Oct-18 15:00N 37°57' E 023°35'0 0.0
2017-Oct-18 14:00N 37°57' E 023°35'0 0.0
2017-Oct-18 13:30N 37°57' E 023°35'0 0.1
2017-Oct-18 13:00N 37°57' E 023°35'0 0.0
2017-Oct-18 12:30N 37°57' E 023°35'0 0.6
2017-Oct-18 12:00N 37°57' E 023°35'2 4.2
2017-Oct-18 11:30N 37°55' E 023°35'2 4.0
2017-Oct-18 11:00N 37°53' E 023°36'3 6.4
2017-Oct-18 10:30N 37°51' E 023°39'713.8
2017-Oct-18 10:01N 37°45' E 023°43'815.6
2017-Oct-18 09:31N 37°37' E 023°46'815.9
2017-Oct-18 09:00N 37°29' E 023°48'56212.5
2017-Oct-16 12:00N 32°18' E 033°18'72 8.8 340 / 141016.210.8 23.415.725.6
2017-Oct-16 03:47N 31°52' E 034°37'1 0.0
2017-Oct-14 23:36N 31°51' E 034°38'1 5.2
2017-Oct-14 23:27N 31°51' E 034°38'234 4.9
2017-Oct-13 00:00N 28°06' E 033°24'   320 / 251012.010.8 24.516.224.4

Dump ship's entire track history